createdAt,value
2019-03-25T00:02:18.505Z,6.60
2019-03-25T00:05:06.661Z,6.50
2019-03-25T00:07:54.429Z,6.50
2019-03-25T00:10:42.645Z,6.60
2019-03-25T00:13:30.280Z,6.60
2019-03-25T00:16:18.026Z,6.50
2019-03-25T00:19:06.192Z,6.60
2019-03-25T00:21:53.993Z,6.70
2019-03-25T00:24:41.734Z,6.50
2019-03-25T00:27:29.661Z,6.60
2019-03-25T00:30:18.101Z,6.60
2019-03-25T00:33:05.805Z,6.50
2019-03-25T00:35:53.856Z,6.50
2019-03-25T00:38:41.306Z,6.60
2019-03-25T00:41:29.185Z,6.70
2019-03-25T00:44:16.937Z,6.60
2019-03-25T00:47:05.053Z,6.60
2019-03-25T00:49:53.022Z,6.60
2019-03-25T00:52:41.297Z,6.60
2019-03-25T00:55:28.770Z,6.60
2019-03-25T00:58:16.501Z,6.60
2019-03-25T01:01:04.069Z,6.50
2019-03-25T01:03:51.941Z,6.50
2019-03-25T01:06:39.957Z,6.50
2019-03-25T01:09:27.735Z,6.60
2019-03-25T01:12:15.515Z,6.60
2019-03-25T01:15:03.129Z,6.60
2019-03-25T01:17:51.160Z,6.60
2019-03-25T01:20:38.718Z,6.60
2019-03-25T01:23:26.614Z,6.50
2019-03-25T01:26:14.304Z,6.50
2019-03-25T01:29:02.041Z,6.40
2019-03-25T01:31:49.542Z,6.50
2019-03-25T01:34:37.084Z,6.50
2019-03-25T01:37:25.045Z,6.50
2019-03-25T01:40:12.814Z,6.50
2019-03-25T01:43:00.565Z,6.60
2019-03-25T01:45:48.212Z,6.50
2019-03-25T01:48:36.257Z,6.60
2019-03-25T01:51:23.753Z,6.60
2019-03-25T01:54:11.460Z,6.70
2019-03-25T01:56:59.532Z,6.70
2019-03-25T01:59:46.976Z,6.60
2019-03-25T02:02:34.971Z,6.60
2019-03-25T02:05:22.787Z,6.50
2019-03-25T02:08:10.897Z,6.30
2019-03-25T02:10:58.936Z,6.40
2019-03-25T02:13:46.665Z,6.40
2019-03-25T02:16:35.734Z,6.40
2019-03-25T02:19:23.672Z,6.40
2019-03-25T02:22:11.297Z,6.30
2019-03-25T02:24:58.865Z,6.30
2019-03-25T02:27:46.502Z,6.40
2019-03-25T02:30:34.042Z,6.40
2019-03-25T02:33:21.782Z,6.40
2019-03-25T02:36:09.262Z,6.40
2019-03-25T02:38:57.360Z,6.30
2019-03-25T02:41:44.838Z,6.30
2019-03-25T02:44:32.317Z,6.40
2019-03-25T02:47:20.023Z,6.40
2019-03-25T02:50:08.429Z,6.40
2019-03-25T02:52:56.418Z,6.50
2019-03-25T02:55:44.470Z,6.50
2019-03-25T02:58:31.929Z,6.40
2019-03-25T03:01:20.021Z,6.30
2019-03-25T03:04:07.497Z,6.30
2019-03-25T03:06:55.359Z,6.00
2019-03-25T03:09:43.315Z,6.10
2019-03-25T03:12:30.980Z,6.00
2019-03-25T03:15:18.566Z,6.00
2019-03-25T03:18:07.321Z,6.10
2019-03-25T03:20:55.270Z,6.10
2019-03-25T03:23:43.501Z,6.00
2019-03-25T03:26:31.288Z,6.10
2019-03-25T03:29:19.466Z,6.00
2019-03-25T03:32:07.200Z,6.10
2019-03-25T03:34:55.501Z,6.00
2019-03-25T03:37:43.532Z,6.10
2019-03-25T03:40:31.776Z,6.10
2019-03-25T03:43:19.851Z,6.20
2019-03-25T03:46:08.009Z,6.10
2019-03-25T03:48:55.827Z,6.10
2019-03-25T03:51:43.703Z,6.00
2019-03-25T03:54:31.708Z,6.10
2019-03-25T03:57:19.768Z,6.00
2019-03-25T04:00:08.218Z,5.80
2019-03-25T04:02:56.213Z,5.90
2019-03-25T04:05:44.006Z,5.90
2019-03-25T04:08:32.094Z,5.90
2019-03-25T04:11:19.549Z,5.90
2019-03-25T04:14:07.501Z,5.90
2019-03-25T04:16:55.003Z,6.00
2019-03-25T04:19:43.246Z,6.00
2019-03-25T04:22:30.685Z,5.90
2019-03-25T04:25:18.434Z,6.00
2019-03-25T04:28:06.378Z,6.10
2019-03-25T04:30:54.257Z,6.00
2019-03-25T04:33:41.977Z,6.00
2019-03-25T04:36:29.714Z,6.00
2019-03-25T04:39:17.210Z,5.80
2019-03-25T04:42:05.478Z,5.90
2019-03-25T04:44:52.997Z,5.80
2019-03-25T04:47:40.461Z,5.70
2019-03-25T04:50:28.471Z,5.90
2019-03-25T04:53:16.564Z,5.80
2019-03-25T04:56:04.069Z,5.80
2019-03-25T04:58:51.845Z,5.60
2019-03-25T05:01:39.708Z,5.50
2019-03-25T05:04:27.753Z,5.60
2019-03-25T05:07:15.529Z,5.50
2019-03-25T05:10:03.107Z,5.50
2019-03-25T05:12:51.172Z,5.50
2019-03-25T05:15:39.157Z,5.60
2019-03-25T05:18:26.630Z,5.60
2019-03-25T05:21:14.636Z,5.60
2019-03-25T05:24:02.201Z,5.60
2019-03-25T05:26:51.315Z,5.50
2019-03-25T05:29:39.484Z,5.60
2019-03-25T05:32:27.228Z,5.50
2019-03-25T05:35:15.037Z,5.60
2019-03-25T05:38:02.768Z,5.50
2019-03-25T05:40:50.504Z,5.60
2019-03-25T05:43:38.440Z,5.70
2019-03-25T05:46:26.530Z,5.70
2019-03-25T05:49:14.253Z,5.60
2019-03-25T05:52:01.760Z,5.60
2019-03-25T05:54:49.497Z,5.60
2019-03-25T05:57:37.576Z,5.60
2019-03-25T06:00:27.697Z,5.60
2019-03-25T06:03:15.610Z,5.40
2019-03-25T06:06:03.361Z,5.50
2019-03-25T06:08:51.185Z,5.30
2019-03-25T06:11:39.360Z,5.50
2019-03-25T06:14:27.364Z,5.50
2019-03-25T06:17:14.874Z,5.60
2019-03-25T06:20:02.697Z,5.70
2019-03-25T06:22:50.172Z,5.80
2019-03-25T06:25:37.921Z,5.80
2019-03-25T06:28:25.917Z,5.80
2019-03-25T06:31:13.373Z,5.80
2019-03-25T06:34:01.325Z,5.70
2019-03-25T06:36:49.280Z,5.70
2019-03-25T06:39:36.734Z,5.50
2019-03-25T06:42:24.663Z,5.60
2019-03-25T06:45:12.785Z,5.60
2019-03-25T06:48:00.697Z,5.70
2019-03-25T06:50:48.472Z,5.40
2019-03-25T06:53:36.429Z,5.40
2019-03-25T06:56:24.190Z,5.50
2019-03-25T06:59:11.641Z,5.60
2019-03-25T07:01:59.726Z,5.50
2019-03-25T07:04:47.620Z,5.50
2019-03-25T07:07:35.104Z,5.50
2019-03-25T07:10:32.872Z,5.70
2019-03-25T07:13:20.635Z,5.80
2019-03-25T07:16:08.603Z,5.80
2019-03-25T07:18:56.097Z,5.90
2019-03-25T07:21:44.201Z,5.90
2019-03-25T07:24:31.945Z,6.00
2019-03-25T07:27:19.681Z,6.00
2019-03-25T07:30:08.313Z,6.10
2019-03-25T07:32:56.081Z,6.10
2019-03-25T07:35:44.152Z,6.20
2019-03-25T07:38:32.100Z,6.30
2019-03-25T07:41:19.560Z,6.30
2019-03-25T07:44:08.760Z,6.40
2019-03-25T07:46:56.588Z,6.10
2019-03-25T07:49:44.550Z,6.20
2019-03-25T07:52:32.549Z,6.00
2019-03-25T07:55:20.024Z,6.20
2019-03-25T07:58:07.479Z,6.10
2019-03-25T08:00:55.264Z,5.90
2019-03-25T08:03:42.978Z,5.90
2019-03-25T08:06:31.015Z,5.80
2019-03-25T08:09:18.512Z,5.50
2019-03-25T08:12:06.277Z,5.30
2019-03-25T08:14:54.410Z,5.40
2019-03-25T08:17:42.261Z,5.40
2019-03-25T08:20:29.741Z,5.40
2019-03-25T08:23:17.734Z,5.50
2019-03-25T08:26:05.267Z,5.70
2019-03-25T08:28:53.324Z,5.80
2019-03-25T08:31:41.122Z,5.90
2019-03-25T08:34:28.589Z,5.90
2019-03-25T08:37:16.606Z,5.90
2019-03-25T08:40:04.376Z,6.00
2019-03-25T08:42:52.129Z,6.00
2019-03-25T08:45:39.762Z,6.00
2019-03-25T08:48:27.813Z,6.10
2019-03-25T08:51:15.255Z,6.10
2019-03-25T08:54:02.749Z,6.20
2019-03-25T08:56:50.536Z,6.10
2019-03-25T08:59:38.397Z,6.10
2019-03-25T09:02:26.357Z,6.10
2019-03-25T09:05:13.910Z,6.30
2019-03-25T09:08:01.926Z,6.40
2019-03-25T09:10:49.551Z,6.50
2019-03-25T09:13:37.433Z,6.50
2019-03-25T09:16:25.141Z,6.50
2019-03-25T09:19:12.733Z,6.50
2019-03-25T09:22:00.857Z,6.50
2019-03-25T09:24:48.706Z,6.40
2019-03-25T09:27:36.556Z,6.50
2019-03-25T09:31:16.122Z,6.60
2019-03-25T09:34:04.156Z,6.80
2019-03-25T09:36:51.757Z,6.70
2019-03-25T09:39:39.538Z,6.60
2019-03-25T09:42:27.112Z,6.40
2019-03-25T09:45:15.389Z,6.40
2019-03-25T09:48:02.929Z,6.40
2019-03-25T09:50:50.877Z,6.50
2019-03-25T09:53:39.097Z,6.50
2019-03-25T09:56:26.918Z,6.50
2019-03-25T09:59:14.742Z,6.60
2019-03-25T10:02:02.517Z,6.80
2019-03-25T10:04:50.497Z,6.80
2019-03-25T10:07:38.559Z,6.80
2019-03-25T10:10:26.333Z,6.80
2019-03-25T10:13:14.369Z,7.00
2019-03-25T10:16:02.372Z,7.20
2019-03-25T10:18:50.225Z,7.40
2019-03-25T10:21:38.093Z,7.60
2019-03-25T10:24:28.079Z,7.70
2019-03-25T10:27:15.583Z,7.70
2019-03-25T10:30:04.161Z,7.70
2019-03-25T10:32:52.264Z,7.80
2019-03-25T10:35:40.264Z,7.70
2019-03-25T10:38:28.402Z,7.70
2019-03-25T10:41:16.177Z,7.60
2019-03-25T10:44:04.549Z,7.60
2019-03-25T10:46:52.588Z,7.50
2019-03-25T10:49:40.149Z,7.40
2019-03-25T10:52:28.202Z,7.40
2019-03-25T10:55:15.877Z,7.50
2019-03-25T10:58:03.705Z,7.70
2019-03-25T11:00:51.829Z,7.80
2019-03-25T11:03:39.343Z,8.10
2019-03-25T11:06:27.269Z,8.20
2019-03-25T11:09:15.121Z,8.60
2019-03-25T11:12:02.649Z,8.80
2019-03-25T11:14:50.649Z,8.50
2019-03-25T11:17:38.384Z,8.30
2019-03-25T11:20:26.149Z,8.10
2019-03-25T11:23:13.654Z,7.60
2019-03-25T11:26:01.489Z,7.40
2019-03-25T11:28:49.050Z,7.30
2019-03-25T11:31:36.524Z,7.30
2019-03-25T11:34:24.481Z,7.50
2019-03-25T11:37:12.513Z,7.80
2019-03-25T11:40:00.063Z,7.70
2019-03-25T11:42:48.094Z,7.90
2019-03-25T11:45:36.087Z,8.40
2019-03-25T11:48:24.144Z,8.60
2019-03-25T11:51:11.847Z,8.80
2019-03-25T11:53:59.978Z,9.00
2019-03-25T11:56:47.496Z,9.20
2019-03-25T11:59:35.522Z,9.60
2019-03-25T12:02:22.992Z,9.60
2019-03-25T12:05:10.973Z,9.80
2019-03-25T12:07:59.136Z,9.80
2019-03-25T12:10:47.465Z,9.40
2019-03-25T12:13:35.961Z,8.90
2019-03-25T12:16:24.302Z,8.60
2019-03-25T12:19:12.145Z,8.00
2019-03-25T12:21:59.945Z,7.30
2019-03-25T12:24:47.737Z,6.70
2019-03-25T12:27:35.522Z,6.50
2019-03-25T12:30:23.366Z,6.30
2019-03-25T12:33:11.121Z,6.50
2019-03-25T12:35:59.040Z,6.90
2019-03-25T12:38:46.758Z,7.00
2019-03-25T12:41:34.825Z,7.00
2019-03-25T12:44:22.552Z,7.20
2019-03-25T12:47:10.058Z,7.70
2019-03-25T12:49:57.536Z,8.30
2019-03-25T12:52:45.370Z,8.60
2019-03-25T12:55:33.245Z,8.70
2019-03-25T12:58:21.033Z,9.10
2019-03-25T13:01:08.817Z,9.30
2019-03-25T13:03:56.322Z,9.70
2019-03-25T13:06:43.822Z,9.90
2019-03-25T13:09:31.332Z,10.30
2019-03-25T13:12:19.288Z,10.20
2019-03-25T13:15:07.194Z,9.90
2019-03-25T13:17:54.877Z,9.60
2019-03-25T13:20:43.010Z,9.40
2019-03-25T13:23:31.009Z,9.20
2019-03-25T13:26:18.821Z,9.00
2019-03-25T13:29:06.305Z,8.60
2019-03-25T13:31:54.057Z,8.40
2019-03-25T13:34:41.761Z,8.00
2019-03-25T13:37:29.341Z,8.00
2019-03-25T13:40:17.508Z,8.30
2019-03-25T13:43:04.996Z,8.50
2019-03-25T13:45:52.801Z,9.20
2019-03-25T13:48:40.895Z,9.40
2019-03-25T13:51:28.712Z,9.70
2019-03-25T13:54:16.157Z,9.50
2019-03-25T13:57:04.233Z,9.30
2019-03-25T14:00:02.736Z,9.20
2019-03-25T14:02:41.497Z,9.20
2019-03-25T14:05:28.956Z,9.20
2019-03-25T14:08:16.905Z,9.20
2019-03-25T14:11:05.106Z,8.80
2019-03-25T14:13:52.841Z,8.30
2019-03-25T14:16:40.883Z,7.70
2019-03-25T14:19:29.476Z,7.70
2019-03-25T14:22:17.396Z,7.60
2019-03-25T14:25:05.349Z,7.60
2019-03-25T14:27:53.101Z,7.70
2019-03-25T14:30:40.548Z,7.80
2019-03-25T14:33:28.376Z,8.10
2019-03-25T14:36:15.858Z,8.10
2019-03-25T14:39:05.206Z,8.10
2019-03-25T14:41:52.913Z,8.40
2019-03-25T14:44:40.514Z,8.30
2019-03-25T14:47:28.317Z,8.50
2019-03-25T14:50:16.528Z,8.90
2019-03-25T14:53:04.539Z,8.90
2019-03-25T14:55:52.117Z,9.20
2019-03-25T14:58:39.837Z,9.10
2019-03-25T15:01:27.654Z,9.50
2019-03-25T15:04:15.394Z,9.30
2019-03-25T15:07:02.972Z,9.00
2019-03-25T15:09:50.748Z,8.80
2019-03-25T15:12:38.685Z,8.80
2019-03-25T15:15:26.333Z,8.50
2019-03-25T15:18:15.842Z,8.70
2019-03-25T15:21:03.769Z,8.60
2019-03-25T15:23:51.489Z,8.50
2019-03-25T15:26:39.070Z,8.40
2019-03-25T15:29:27.083Z,8.40
2019-03-25T15:32:14.641Z,8.40
2019-03-25T15:35:02.395Z,8.50
2019-03-25T15:37:50.145Z,8.40
2019-03-25T15:40:37.945Z,8.40
2019-03-25T15:43:25.925Z,8.30
2019-03-25T15:46:13.489Z,8.40
2019-03-25T15:49:01.098Z,8.30
2019-03-25T15:51:48.849Z,8.40
2019-03-25T15:54:36.644Z,8.20
2019-03-25T15:57:24.405Z,8.20
2019-03-25T16:00:14.455Z,8.40
2019-03-25T16:03:02.298Z,8.70
2019-03-25T16:05:50.256Z,8.70
2019-03-25T16:08:37.965Z,8.60
2019-03-25T16:11:25.742Z,8.50
2019-03-25T16:14:13.673Z,8.60
2019-03-25T16:17:01.196Z,8.50
2019-03-25T16:19:49.237Z,8.70
2019-03-25T16:22:37.297Z,8.80
2019-03-25T16:25:28.238Z,8.70
2019-03-25T16:28:15.925Z,8.70
2019-03-25T16:31:03.505Z,8.90
2019-03-25T16:33:51.228Z,9.30
2019-03-25T16:36:39.276Z,9.60
2019-03-25T16:39:26.789Z,9.60
2019-03-25T16:42:14.649Z,9.70
2019-03-25T16:45:02.140Z,9.70
2019-03-25T16:47:49.987Z,9.80
2019-03-25T16:50:37.773Z,9.80
2019-03-25T16:53:25.473Z,9.60
2019-03-25T16:56:13.477Z,9.60
2019-03-25T16:59:01.052Z,9.20
2019-03-25T17:01:48.549Z,9.10
2019-03-25T17:04:36.577Z,9.00
2019-03-25T17:07:24.581Z,9.10
2019-03-25T17:10:12.861Z,8.90
2019-03-25T17:13:00.349Z,8.80
2019-03-25T17:15:48.405Z,8.60
2019-03-25T17:18:35.913Z,8.50
2019-03-25T17:21:23.681Z,8.50
2019-03-25T17:24:14.019Z,8.50
2019-03-25T17:27:00.796Z,8.40
2019-03-25T17:29:48.570Z,8.50
2019-03-25T17:32:36.688Z,8.40
2019-03-25T17:35:24.697Z,8.40
2019-03-25T17:38:12.748Z,8.40
2019-03-25T17:41:00.241Z,8.40
2019-03-25T17:43:48.101Z,8.40
2019-03-25T17:46:35.878Z,8.40
2019-03-25T17:49:23.353Z,8.40
2019-03-25T17:52:11.155Z,8.40
2019-03-25T17:54:59.174Z,8.40
2019-03-25T17:57:46.989Z,8.40
2019-03-25T18:01:19.354Z,8.30
2019-03-25T18:04:07.522Z,8.20
2019-03-25T18:06:54.952Z,8.30
2019-03-25T18:09:43.213Z,8.30
2019-03-25T18:12:38.730Z,8.30
2019-03-25T18:15:20.489Z,8.30
2019-03-25T18:18:08.253Z,8.30
2019-03-25T18:20:56.326Z,8.20
2019-03-25T18:23:43.829Z,8.20
2019-03-25T18:26:31.848Z,8.20
2019-03-25T18:29:19.817Z,8.20
2019-03-25T18:32:07.570Z,8.00
2019-03-25T18:34:55.301Z,7.90
2019-03-25T18:37:42.876Z,7.90
2019-03-25T18:40:30.665Z,7.80
2019-03-25T18:43:18.731Z,7.80
2019-03-25T18:46:06.919Z,7.80
2019-03-25T18:48:55.093Z,7.80
2019-03-25T18:51:42.598Z,7.70
2019-03-25T18:54:30.670Z,7.60
2019-03-25T18:57:18.204Z,7.50
2019-03-25T19:00:06.651Z,7.40
2019-03-25T19:02:54.389Z,7.40
2019-03-25T19:05:42.514Z,7.40
2019-03-25T19:08:31.918Z,7.40
2019-03-25T19:11:30.564Z,7.40
2019-03-25T19:14:09.017Z,7.40
2019-03-25T19:16:57.029Z,7.40
2019-03-25T19:19:44.828Z,7.40
2019-03-25T19:22:32.905Z,7.30
2019-03-25T19:25:21.003Z,7.30
2019-03-25T19:28:08.657Z,7.30
2019-03-25T19:30:56.818Z,7.00
2019-03-25T19:33:44.894Z,7.20
2019-03-25T19:36:32.325Z,7.20
2019-03-25T19:39:20.349Z,7.20
2019-03-25T19:42:08.056Z,7.20
2019-03-25T19:44:55.625Z,7.10
2019-03-25T19:47:43.419Z,7.20
2019-03-25T19:50:31.451Z,7.20
2019-03-25T19:53:19.691Z,7.10
2019-03-25T19:56:07.653Z,7.20
2019-03-25T19:58:55.397Z,7.20
2019-03-25T20:01:42.894Z,7.20
2019-03-25T20:04:30.433Z,7.20
2019-03-25T20:07:18.635Z,7.20
2019-03-25T20:10:06.740Z,7.20
2019-03-25T20:12:54.505Z,7.20
2019-03-25T20:15:46.388Z,7.20
2019-03-25T20:18:31.692Z,7.20
2019-03-25T20:21:19.687Z,7.30
2019-03-25T20:24:07.819Z,7.20
2019-03-25T20:26:55.892Z,7.20
2019-03-25T20:29:43.726Z,7.10
2019-03-25T20:32:32.278Z,7.00
2019-03-25T20:35:20.426Z,7.00
2019-03-25T20:38:08.264Z,7.00
2019-03-25T20:40:56.340Z,6.90
2019-03-25T20:43:44.451Z,7.00
2019-03-25T20:46:32.552Z,6.90
2019-03-25T20:49:20.079Z,6.90
2019-03-25T20:52:08.151Z,6.80
2019-03-25T20:54:56.312Z,6.80
2019-03-25T20:57:43.918Z,6.80
2019-03-25T21:00:51.075Z,6.80
2019-03-25T21:03:38.903Z,6.80
2019-03-25T21:06:26.972Z,6.50
2019-03-25T21:09:14.424Z,6.60
2019-03-25T21:12:02.486Z,6.60
2019-03-25T21:14:50.497Z,6.50
2019-03-25T21:17:38.135Z,6.50
2019-03-25T21:20:26.185Z,6.40
2019-03-25T21:23:14.184Z,6.30
2019-03-25T21:26:02.316Z,6.40
2019-03-25T21:28:50.388Z,6.40
2019-03-25T21:31:39.093Z,6.30
2019-03-25T21:34:27.111Z,6.30
2019-03-25T21:37:15.136Z,6.20
2019-03-25T21:40:03.296Z,6.20
2019-03-25T21:42:51.194Z,6.20
2019-03-25T21:45:38.945Z,6.10
2019-03-25T21:48:26.749Z,6.20
2019-03-25T21:51:14.804Z,6.30
2019-03-25T21:54:02.428Z,6.20
2019-03-25T21:56:50.440Z,6.20
2019-03-25T21:59:38.473Z,6.30
2019-03-25T22:02:26.024Z,6.30
2019-03-25T22:05:13.848Z,6.40
2019-03-25T22:08:01.330Z,6.40
2019-03-25T22:10:49.085Z,6.50
2019-03-25T22:13:37.164Z,6.50
2019-03-25T22:16:24.913Z,6.50
2019-03-25T22:19:12.368Z,6.50
2019-03-25T22:22:00.337Z,6.50
2019-03-25T22:24:48.273Z,6.60
2019-03-25T22:27:35.816Z,6.70
2019-03-25T22:30:25.924Z,6.60
2019-03-25T22:33:25.159Z,6.70
2019-03-25T22:36:02.802Z,6.60
2019-03-25T22:38:50.452Z,6.70
2019-03-25T22:41:38.410Z,6.70
2019-03-25T22:44:25.880Z,6.70
2019-03-25T22:47:13.961Z,6.70
2019-03-25T22:50:01.778Z,6.60
2019-03-25T22:52:49.776Z,6.70
2019-03-25T22:55:37.501Z,6.70
2019-03-25T22:58:25.520Z,6.80
2019-03-25T23:01:13.819Z,6.80
2019-03-25T23:04:01.493Z,6.70
2019-03-25T23:06:48.995Z,6.80
2019-03-25T23:09:37.153Z,6.70
2019-03-25T23:12:24.866Z,6.70
2019-03-25T23:15:12.353Z,6.70
2019-03-25T23:17:59.856Z,6.70
2019-03-25T23:20:47.776Z,6.70
2019-03-25T23:23:35.316Z,6.60
2019-03-25T23:26:23.148Z,6.50
2019-03-25T23:29:11.161Z,6.50
2019-03-25T23:31:59.357Z,6.40
2019-03-25T23:34:47.189Z,6.30
2019-03-25T23:37:34.674Z,6.30
2019-03-25T23:40:22.147Z,6.10
2019-03-25T23:43:09.942Z,6.10
2019-03-25T23:45:57.396Z,6.00
2019-03-25T23:48:45.131Z,5.90
2019-03-25T23:51:32.937Z,6.00
2019-03-25T23:54:20.437Z,5.90
2019-03-25T23:57:08.453Z,5.70
2019-03-25T23:59:55.953Z,5.70
